Afric Star — A8KJ8 — position and weather

sailwx.info

Track history (hours):
 
Tides and Currents Weather Stations Pressure Air Temp Water Temp Dewpoint Dewpoint Depression Visibility Wind Speed Wind Dir Waves Ship Positions

Afric Star

Last reported at 2015-Feb-24 23:16 UTC. Time now 2015-Feb-26 23:20 UTC.
Position N 50°24' W 000°23'.

Length 158 m; draft 7.2 m.

Type: Cargo ship. MMSI: 636013069.

Date/timePositionNaut miles runAvg speedWind from/ knotsBaromVisibWave heightAir tempDewpointWater temp
2015-Feb-24 23:16N 50°24' W 000°23'1414.3
2015-Feb-24 22:19N 50°28' W 000°02'1215.7
2015-Feb-24 21:32N 50°30' E 000°17'2215.9
2015-Feb-24 20:07N 50°40' E 000°49'915.9
2015-Feb-24 19:33N 50°45' E 001°00'1515.2
2015-Feb-24 18:34N 50°56' E 001°18'1413.6
2015-Feb-24 17:34N 51°05' E 001°34'1312.7
2015-Feb-24 16:34N 51°14' E 001°47'1413.8
2015-Feb-24 15:34N 51°26' E 001°57'1515.0
2015-Feb-24 14:33N 51°38' E 002°14'1716.4
2015-Feb-24 13:32N 51°50' E 002°32'44913.6
2015-Feb-23 04:33N 57°48' E 010°22'1414.1
2015-Feb-23 03:34N 57°48' E 010°48'1615.6
2015-Feb-23 02:33N 57°38' E 011°11'1616.1
2015-Feb-23 01:34N 57°25' E 011°29'1716.7
2015-Feb-23 00:33N 57°09' E 011°39'1717.2
2015-Feb-22 23:33N 56°53' E 011°50'1616.4
2015-Feb-22 22:33N 56°37' E 011°58'1716.7
2015-Feb-22 21:34N 56°21' E 012°04'1615.9
2015-Feb-22 20:34N 56°10' E 012°26'1615.8
2015-Feb-22 19:34N 55°58' E 012°43'1313.3
2015-Feb-22 18:33N 55°44' E 012°40'0 0.3
2015-Feb-22 17:33N 55°44' E 012°39'2 2.5
2015-Feb-22 16:34N 55°42' E 012°41'10 9.5
2015-Feb-22 15:34N 55°33' E 012°43'1514.8
2015-Feb-22 14:34N 55°18' E 012°44'1515.0
2015-Feb-22 13:33N 55°14' E 013°10'1514.9
2015-Feb-22 12:34N 55°14' E 013°36'1514.7
2015-Feb-22 11:34N 55°13' E 014°01'1413.5
2015-Feb-22 10:34N 55°18' E 014°24'1515.1
2015-Feb-22 09:34N 55°28' E 014°43'1514.9
2015-Feb-22 08:34N 55°36' E 015°06'34914.5
2015-Feb-21 08:31N 59°35' E 022°59'1515.3
2015-Feb-21 07:33N 59°39' E 023°27'3115.4
2015-Feb-21 05:33N 59°47' E 024°25'5215.2
2015-Feb-21 02:09N 59°58' E 026°06'915.1
2015-Feb-21 01:33N 60°00' E 026°23'1514.8
2015-Feb-21 00:33N 60°00' E 026°53'95 9.5
2015-Feb-20 14:32N 59°55' E 030°03'5 5.4
2015-Feb-20 13:33N 59°54' E 030°13'0 0.2
2015-Feb-20 12:31N 59°54' E 030°13'0 0.0
2015-Feb-20 11:31N 59°54' E 030°13'0 0.0
2015-Feb-20 10:28N 59°54' E 030°13'0 0.0
2015-Feb-20 09:31N 59°54' E 030°13'0 0.0
2015-Feb-20 08:28N 59°54' E 030°13'0 0.0
2015-Feb-20 07:28N 59°54' E 030°13'0 0.0
2015-Feb-20 06:31N 59°54' E 030°13'0 0.0
2015-Feb-20 05:31N 59°54' E 030°13'0 0.0
2015-Feb-20 04:31N 59°54' E 030°13'0 0.0
2015-Feb-20 03:28N 59°54' E 030°13'0 0.0
2015-Feb-20 02:28N 59°54' E 030°13'0 0.0
2015-Feb-20 00:04N 59°54' E 030°13'0 0.0
2015-Feb-19 23:31N 59°54' E 030°13'0 0.0
2015-Feb-19 22:25N 59°54' E 030°13'0 0.0
2015-Feb-19 21:31N 59°54' E 030°13'0 0.0
2015-Feb-19 20:31N 59°54' E 030°13'0 0.0
2015-Feb-19 19:31N 59°54' E 030°13'0 0.0
2015-Feb-19 18:31N 59°54' E 030°13'0 0.0
2015-Feb-19 17:31N 59°54' E 030°13'0 0.0
2015-Feb-19 16:31N 59°54' E 030°13'0 0.0
2015-Feb-19 15:31N 59°54' E 030°13'0 0.0
2015-Feb-19 14:31N 59°54' E 030°13'0 0.0
2015-Feb-19 13:31N 59°54' E 030°13'0 0.0
2015-Feb-19 12:31N 59°54' E 030°13'0 0.0
2015-Feb-19 11:31N 59°54' E 030°13'0 0.0
2015-Feb-19 10:28N 59°54' E 030°13'0 0.0
2015-Feb-19 09:31N 59°54' E 030°13'0 0.0
2015-Feb-19 08:31N 59°54' E 030°13'0 0.0
2015-Feb-19 07:31N 59°54' E 030°13'0 0.0
2015-Feb-19 06:07N 59°54' E 030°13'0 0.0
2015-Feb-19 05:16N 59°54' E 030°13'0 0.0
2015-Feb-19 04:28N 59°54' E 030°13'0 0.0
2015-Feb-19 03:28N 59°54' E 030°13'0 0.0
2015-Feb-19 02:28N 59°54' E 030°13'0 0.0
2015-Feb-19 01:31N 59°54' E 030°13'0 0.0
2015-Feb-19 00:28N 59°54' E 030°13'0 0.0
2015-Feb-18 23:25N 59°54' E 030°13'0 0.0
2015-Feb-18 22:28N 59°54' E 030°13'0 0.0
2015-Feb-18 21:31N 59°54' E 030°13'0 0.0
2015-Feb-18 20:31N 59°54' E 030°13'0 0.0
2015-Feb-18 19:28N 59°54' E 030°13'0 0.0
2015-Feb-18 18:31N 59°54' E 030°13'0 0.0
2015-Feb-18 17:31N 59°54' E 030°13'0 0.0
2015-Feb-18 16:28N 59°54' E 030°13'0 0.0
2015-Feb-18 15:31N 59°54' E 030°13'0 0.0
2015-Feb-18 14:28N 59°54' E 030°13'0 0.0
2015-Feb-18 13:31N 59°54' E 030°13'0 0.0
2015-Feb-18 12:31N 59°54' E 030°13'0 0.0
2015-Feb-18 11:22N 59°54' E 030°13'0 0.0
2015-Feb-18 10:28N 59°54' E 030°13'0 0.0
2015-Feb-18 09:31N 59°54' E 030°13'0 0.0
2015-Feb-18 08:31N 59°54' E 030°13'0 0.0
2015-Feb-18 07:31N 59°54' E 030°13'0 0.0
2015-Feb-18 06:31N 59°54' E 030°13'0 0.0
2015-Feb-18 05:31N 59°54' E 030°13'0 0.0
2015-Feb-18 04:31N 59°54' E 030°13'0 0.0
2015-Feb-18 03:31N 59°54' E 030°13'0 0.0
2015-Feb-18 02:31N 59°54' E 030°13'0 0.0
2015-Feb-18 01:31N 59°54' E 030°13'0 0.0
2015-Feb-18 00:31N 59°54' E 030°13'0 0.0
2015-Feb-17 23:31N 59°54' E 030°13'0 0.0
2015-Feb-17 22:28N 59°54' E 030°13'0 0.0
2015-Feb-17 21:31N 59°54' E 030°13'0 0.0
2015-Feb-17 20:28N 59°54' E 030°13'0 0.0
2015-Feb-17 19:31N 59°54' E 030°13'0 0.0
2015-Feb-17 17:31N 59°54' E 030°13'0 0.0
2015-Feb-17 16:28N 59°54' E 030°13'0 0.0
2015-Feb-17 15:31N 59°54' E 030°13'0 0.0
2015-Feb-17 14:31N 59°54' E 030°13'0 0.0
2015-Feb-17 13:31N 59°54' E 030°13'0 0.0
2015-Feb-17 12:31N 59°54' E 030°13'0 0.0
2015-Feb-17 11:31N 59°54' E 030°13'0 0.0
2015-Feb-17 10:31N 59°54' E 030°13'0 0.0
2015-Feb-17 09:28N 59°54' E 030°13'0 0.0
2015-Feb-17 08:31N 59°54' E 030°13'0 0.0
2015-Feb-17 07:31N 59°54' E 030°13'0 0.0
2015-Feb-17 06:31N 59°54' E 030°13'0 0.0
2015-Feb-17 05:28N 59°54' E 030°13'0 0.0
2015-Feb-17 04:31N 59°54' E 030°13'0 0.0
2015-Feb-17 03:31N 59°54' E 030°13'0 0.0
2015-Feb-17 02:31N 59°54' E 030°13'0 0.0
2015-Feb-17 01:31N 59°54' E 030°13'0 0.0
2015-Feb-17 00:25N 59°54' E 030°13'0 0.0
2015-Feb-16 23:28N 59°54' E 030°13'0 0.0
2015-Feb-16 22:31N 59°54' E 030°13'0 0.0
2015-Feb-16 21:31N 59°54' E 030°13'0 0.0
2015-Feb-16 20:31N 59°54' E 030°13'0 0.0
2015-Feb-16 19:28N 59°54' E 030°13'0 0.0
2015-Feb-16 18:31N 59°54' E 030°13'0 0.0
2015-Feb-16 17:31N 59°54' E 030°13'0 0.0
2015-Feb-16 16:31N 59°54' E 030°13'0 0.0
2015-Feb-16 15:31N 59°54' E 030°13'0 0.0
2015-Feb-16 14:31N 59°54' E 030°13'0 0.0
2015-Feb-16 13:31N 59°54' E 030°13'0 0.0
2015-Feb-16 12:31N 59°54' E 030°13'0 0.0
2015-Feb-16 11:31N 59°54' E 030°13'0 0.0
2015-Feb-16 10:31N 59°54' E 030°13'0 0.0
2015-Feb-16 09:31N 59°54' E 030°13'0 0.0
2015-Feb-16 08:31N 59°54' E 030°13'0 0.0
2015-Feb-16 07:31N 59°54' E 030°13'0 0.0
2015-Feb-16 06:31N 59°54' E 030°13'0 0.0
2015-Feb-16 05:31N 59°54' E 030°13'0 0.0
2015-Feb-16 04:31N 59°54' E 030°13'0 0.0
2015-Feb-16 03:31N 59°54' E 030°13'0 0.0
2015-Feb-16 02:31N 59°54' E 030°13'0 0.0
2015-Feb-16 01:31N 59°54' E 030°13'0 0.0
2015-Feb-16 00:28N 59°54' E 030°13'0 0.0
2015-Feb-15 23:31N 59°54' E 030°13'0 0.0
2015-Feb-15 22:31N 59°54' E 030°13'0 0.0
2015-Feb-15 21:31N 59°54' E 030°13'0 0.0
2015-Feb-15 20:31N 59°54' E 030°13'0 0.0
2015-Feb-15 19:31N 59°54' E 030°13'0 0.0
2015-Feb-15 18:31N 59°54' E 030°13'0 0.0
2015-Feb-15 17:31N 59°54' E 030°13'0 0.0
2015-Feb-15 16:28N 59°54' E 030°13'0 0.0
2015-Feb-15 15:31N 59°54' E 030°13'0 0.0
2015-Feb-15 14:31N 59°54' E 030°13'0 0.0
2015-Feb-15 13:31N 59°54' E 030°13'0 0.0
2015-Feb-15 12:31N 59°54' E 030°13'0 0.0
2015-Feb-15 11:31N 59°54' E 030°13'0 0.0
2015-Feb-15 10:31N 59°54' E 030°13'0 0.0
2015-Feb-15 09:33N 59°54' E 030°13'0 0.3
2015-Feb-15 08:33N 59°55' E 030°13'2 2.1
2015-Feb-15 07:32N 59°53' E 030°10'  
Track history (hours):
 
Tides and Currents Weather Stations Pressure Air Temp Water Temp Dewpoint Dewpoint Depression Visibility Wind Speed Wind Dir Waves Ship Positions

Afric Star

Last reported at 2015-Feb-24 23:16 UTC. Time now 2015-Feb-26 23:20 UTC.
Position N 50°24' W 000°23'.

Length 158 m; draft 7.2 m.

Type: Cargo ship. MMSI: 636013069.

Date/timePositionNaut miles runAvg speedWind from/ knotsBaromVisibWave heightAir tempDewpointWater temp
2015-Feb-24 23:16N 50°24' W 000°23'1414.3
2015-Feb-24 22:19N 50°28' W 000°02'1215.7
2015-Feb-24 21:32N 50°30' E 000°17'2215.9
2015-Feb-24 20:07N 50°40' E 000°49'915.9
2015-Feb-24 19:33N 50°45' E 001°00'1515.2
2015-Feb-24 18:34N 50°56' E 001°18'1413.6
2015-Feb-24 17:34N 51°05' E 001°34'1312.7
2015-Feb-24 16:34N 51°14' E 001°47'1413.8
2015-Feb-24 15:34N 51°26' E 001°57'1515.0
2015-Feb-24 14:33N 51°38' E 002°14'1716.4
2015-Feb-24 13:32N 51°50' E 002°32'44913.6
2015-Feb-23 04:33N 57°48' E 010°22'1414.1
2015-Feb-23 03:34N 57°48' E 010°48'1615.6
2015-Feb-23 02:33N 57°38' E 011°11'1616.1
2015-Feb-23 01:34N 57°25' E 011°29'1716.7
2015-Feb-23 00:33N 57°09' E 011°39'1717.2
2015-Feb-22 23:33N 56°53' E 011°50'1616.4
2015-Feb-22 22:33N 56°37' E 011°58'1716.7
2015-Feb-22 21:34N 56°21' E 012°04'1615.9
2015-Feb-22 20:34N 56°10' E 012°26'1615.8
2015-Feb-22 19:34N 55°58' E 012°43'1313.3
2015-Feb-22 18:33N 55°44' E 012°40'0 0.3
2015-Feb-22 17:33N 55°44' E 012°39'2 2.5
2015-Feb-22 16:34N 55°42' E 012°41'10 9.5
2015-Feb-22 15:34N 55°33' E 012°43'1514.8
2015-Feb-22 14:34N 55°18' E 012°44'1515.0
2015-Feb-22 13:33N 55°14' E 013°10'1514.9
2015-Feb-22 12:34N 55°14' E 013°36'1514.7
2015-Feb-22 11:34N 55°13' E 014°01'1413.5
2015-Feb-22 10:34N 55°18' E 014°24'1515.1
2015-Feb-22 09:34N 55°28' E 014°43'1514.9
2015-Feb-22 08:34N 55°36' E 015°06'34914.5
2015-Feb-21 08:31N 59°35' E 022°59'1515.3
2015-Feb-21 07:33N 59°39' E 023°27'3115.4
2015-Feb-21 05:33N 59°47' E 024°25'5215.2
2015-Feb-21 02:09N 59°58' E 026°06'915.1
2015-Feb-21 01:33N 60°00' E 026°23'1514.8
2015-Feb-21 00:33N 60°00' E 026°53'95 9.5
2015-Feb-20 14:32N 59°55' E 030°03'5 5.4
2015-Feb-20 13:33N 59°54' E 030°13'0 0.2
2015-Feb-20 12:31N 59°54' E 030°13'0 0.0
2015-Feb-20 11:31N 59°54' E 030°13'0 0.0
2015-Feb-20 10:28N 59°54' E 030°13'0 0.0
2015-Feb-20 09:31N 59°54' E 030°13'0 0.0
2015-Feb-20 08:28N 59°54' E 030°13'0 0.0
2015-Feb-20 07:28N 59°54' E 030°13'0 0.0
2015-Feb-20 06:31N 59°54' E 030°13'0 0.0
2015-Feb-20 05:31N 59°54' E 030°13'0 0.0
2015-Feb-20 04:31N 59°54' E 030°13'0 0.0
2015-Feb-20 03:28N 59°54' E 030°13'0 0.0
2015-Feb-20 02:28N 59°54' E 030°13'0 0.0
2015-Feb-20 00:04N 59°54' E 030°13'0 0.0
2015-Feb-19 23:31N 59°54' E 030°13'0 0.0
2015-Feb-19 22:25N 59°54' E 030°13'0 0.0
2015-Feb-19 21:31N 59°54' E 030°13'0 0.0
2015-Feb-19 20:31N 59°54' E 030°13'0 0.0
2015-Feb-19 19:31N 59°54' E 030°13'0 0.0
2015-Feb-19 18:31N 59°54' E 030°13'0 0.0
2015-Feb-19 17:31N 59°54' E 030°13'0 0.0
2015-Feb-19 16:31N 59°54' E 030°13'0 0.0
2015-Feb-19 15:31N 59°54' E 030°13'0 0.0
2015-Feb-19 14:31N 59°54' E 030°13'0 0.0
2015-Feb-19 13:31N 59°54' E 030°13'0 0.0
2015-Feb-19 12:31N 59°54' E 030°13'0 0.0
2015-Feb-19 11:31N 59°54' E 030°13'0 0.0
2015-Feb-19 10:28N 59°54' E 030°13'0 0.0
2015-Feb-19 09:31N 59°54' E 030°13'0 0.0
2015-Feb-19 08:31N 59°54' E 030°13'0 0.0
2015-Feb-19 07:31N 59°54' E 030°13'0 0.0
2015-Feb-19 06:07N 59°54' E 030°13'0 0.0
2015-Feb-19 05:16N 59°54' E 030°13'0 0.0
2015-Feb-19 04:28N 59°54' E 030°13'0 0.0
2015-Feb-19 03:28N 59°54' E 030°13'0 0.0
2015-Feb-19 02:28N 59°54' E 030°13'0 0.0
2015-Feb-19 01:31N 59°54' E 030°13'0 0.0
2015-Feb-19 00:28N 59°54' E 030°13'0 0.0
2015-Feb-18 23:25N 59°54' E 030°13'0 0.0
2015-Feb-18 22:28N 59°54' E 030°13'0 0.0
2015-Feb-18 21:31N 59°54' E 030°13'0 0.0
2015-Feb-18 20:31N 59°54' E 030°13'0 0.0
2015-Feb-18 19:28N 59°54' E 030°13'0 0.0
2015-Feb-18 18:31N 59°54' E 030°13'0 0.0
2015-Feb-18 17:31N 59°54' E 030°13'0 0.0
2015-Feb-18 16:28N 59°54' E 030°13'0 0.0
2015-Feb-18 15:31N 59°54' E 030°13'0 0.0
2015-Feb-18 14:28N 59°54' E 030°13'0 0.0
2015-Feb-18 13:31N 59°54' E 030°13'0 0.0
2015-Feb-18 12:31N 59°54' E 030°13'0 0.0
2015-Feb-18 11:22N 59°54' E 030°13'0 0.0
2015-Feb-18 10:28N 59°54' E 030°13'0 0.0
2015-Feb-18 09:31N 59°54' E 030°13'0 0.0
2015-Feb-18 08:31N 59°54' E 030°13'0 0.0
2015-Feb-18 07:31N 59°54' E 030°13'0 0.0
2015-Feb-18 06:31N 59°54' E 030°13'0 0.0
2015-Feb-18 05:31N 59°54' E 030°13'0 0.0
2015-Feb-18 04:31N 59°54' E 030°13'0 0.0
2015-Feb-18 03:31N 59°54' E 030°13'0 0.0
2015-Feb-18 02:31N 59°54' E 030°13'0 0.0
2015-Feb-18 01:31N 59°54' E 030°13'0 0.0
2015-Feb-18 00:31N 59°54' E 030°13'0 0.0
2015-Feb-17 23:31N 59°54' E 030°13'0 0.0
2015-Feb-17 22:28N 59°54' E 030°13'0 0.0
2015-Feb-17 21:31N 59°54' E 030°13'0 0.0
2015-Feb-17 20:28N 59°54' E 030°13'0 0.0
2015-Feb-17 19:31N 59°54' E 030°13'0 0.0
2015-Feb-17 17:31N 59°54' E 030°13'0 0.0
2015-Feb-17 16:28N 59°54' E 030°13'0 0.0
2015-Feb-17 15:31N 59°54' E 030°13'0 0.0
2015-Feb-17 14:31N 59°54' E 030°13'0 0.0
2015-Feb-17 13:31N 59°54' E 030°13'0 0.0
2015-Feb-17 12:31N 59°54' E 030°13'0 0.0
2015-Feb-17 11:31N 59°54' E 030°13'0 0.0
2015-Feb-17 10:31N 59°54' E 030°13'0 0.0
2015-Feb-17 09:28N 59°54' E 030°13'0 0.0
2015-Feb-17 08:31N 59°54' E 030°13'0 0.0
2015-Feb-17 07:31N 59°54' E 030°13'0 0.0
2015-Feb-17 06:31N 59°54' E 030°13'0 0.0
2015-Feb-17 05:28N 59°54' E 030°13'0 0.0
2015-Feb-17 04:31N 59°54' E 030°13'0 0.0
2015-Feb-17 03:31N 59°54' E 030°13'0 0.0
2015-Feb-17 02:31N 59°54' E 030°13'0 0.0
2015-Feb-17 01:31N 59°54' E 030°13'0 0.0
2015-Feb-17 00:25N 59°54' E 030°13'0 0.0
2015-Feb-16 23:28N 59°54' E 030°13'0 0.0
2015-Feb-16 22:31N 59°54' E 030°13'0 0.0
2015-Feb-16 21:31N 59°54' E 030°13'0 0.0
2015-Feb-16 20:31N 59°54' E 030°13'0 0.0
2015-Feb-16 19:28N 59°54' E 030°13'0 0.0
2015-Feb-16 18:31N 59°54' E 030°13'0 0.0
2015-Feb-16 17:31N 59°54' E 030°13'0 0.0
2015-Feb-16 16:31N 59°54' E 030°13'0 0.0
2015-Feb-16 15:31N 59°54' E 030°13'0 0.0
2015-Feb-16 14:31N 59°54' E 030°13'0 0.0
2015-Feb-16 13:31N 59°54' E 030°13'0 0.0
2015-Feb-16 12:31N 59°54' E 030°13'0 0.0
2015-Feb-16 11:31N 59°54' E 030°13'0 0.0
2015-Feb-16 10:31N 59°54' E 030°13'0 0.0
2015-Feb-16 09:31N 59°54' E 030°13'0 0.0
2015-Feb-16 08:31N 59°54' E 030°13'0 0.0
2015-Feb-16 07:31N 59°54' E 030°13'0 0.0
2015-Feb-16 06:31N 59°54' E 030°13'0 0.0
2015-Feb-16 05:31N 59°54' E 030°13'0 0.0
2015-Feb-16 04:31N 59°54' E 030°13'0 0.0
2015-Feb-16 03:31N 59°54' E 030°13'0 0.0
2015-Feb-16 02:31N 59°54' E 030°13'0 0.0
2015-Feb-16 01:31N 59°54' E 030°13'0 0.0
2015-Feb-16 00:28N 59°54' E 030°13'0 0.0
2015-Feb-15 23:31N 59°54' E 030°13'0 0.0
2015-Feb-15 22:31N 59°54' E 030°13'0 0.0
2015-Feb-15 21:31N 59°54' E 030°13'0 0.0
2015-Feb-15 20:31N 59°54' E 030°13'0 0.0
2015-Feb-15 19:31N 59°54' E 030°13'0 0.0
2015-Feb-15 18:31N 59°54' E 030°13'0 0.0
2015-Feb-15 17:31N 59°54' E 030°13'0 0.0
2015-Feb-15 16:28N 59°54' E 030°13'0 0.0
2015-Feb-15 15:31N 59°54' E 030°13'0 0.0
2015-Feb-15 14:31N 59°54' E 030°13'0 0.0
2015-Feb-15 13:31N 59°54' E 030°13'0 0.0
2015-Feb-15 12:31N 59°54' E 030°13'0 0.0
2015-Feb-15 11:31N 59°54' E 030°13'0 0.0
2015-Feb-15 10:31N 59°54' E 030°13'0 0.0
2015-Feb-15 09:33N 59°54' E 030°13'0 0.3
2015-Feb-15 08:33N 59°55' E 030°13'2 2.1
2015-Feb-15 07:32N 59°53' E 030°10'  

Dump ship's entire track history